Portada
METAR-TAF:

METAR-TAF

Aeroports :

Taixkent, Uzbekistan

latitud: 41-16N, longitud: 069-16E, altitud: 489 m

Observació

L'informe es va fer fa 32 minuts, a les 23:30 UTC
Vent 4 kt del Nord-Est
Temperatura 7°C
Humitat 70%
Pressió 1026 hPa
Visibilitat 10 km o més
sense núvols per sota de 1500 mi sense presència de cumulonimbus.

METAR: UTTT 192330Z 04004KT CAVOK 07/02 Q1026 R08R/CLRD70 NOSIG

Hora: 05:02 (00:02 UTC)

Pronòstic

L'informe es va fer fa 1 hora i 2 minuts, a les 23:00 UTC
Pronòstic vàlid del 20 a les 00 UTC al 20 a les 24 UTC
Vent 10 kt del Est/Nord-Est
Visibilitat: 7000 m
Temporalment
l' 20 a les 14 UTC al 20 a les 18 UTC
Visibilitat: 3000 m
fum

TAF: UTTT 192300Z 2000/2024 07010KT 7000 NSC TEMPO 2014/2018 3000 FU

Observacions i pronòstics meteorològics de més de 4000 aeroports (METAR i TAF).

Les estacions disponibles són els punts grocs i vermells al mapa.

Posi el ratolí al punt desitjat per veure el nom de l'estació.

Feu clic per veure les observacions i els pronòstics meteorològics.

Per canviar el mapa: feu clic els botons verds amb una creu de color negre per apropar; al botó verd amb un guió per allunyar la imatge; o en les fletxes verdes per a mapes adjacents.


METAR-TAF: